E.r. Borneo — A8SZ4 — position and weather

sailwx.info

Track history (hours):
 
Tides and Currents Weather Stations Pressure Air Temp Water Temp Dewpoint Dewpoint Depression Visibility Wind Speed Wind Dir Waves Ship Positions

E.r. Borneo

Last reported at 2014-Oct-17 03:18 UTC. Time now 2014-Oct-22 12:18 UTC.
Position N 35°31' W 028°51'.

Length 292 m; draft 10.5 m.

Type: Cargo ship. MMSI: 636091797.

Date/timePositionNaut miles runAvg speedWind from/ knotsBaromVisibWave heightAir tempDewpointWater temp
2014-Oct-17 03:18N 35°31' W 028°51'92 9.4
2014-Oct-16 17:32N 36°21' W 027°16'2110.2
2014-Oct-16 15:31N 36°32' W 026°54'1010.3
2014-Oct-16 14:33N 36°37' W 026°44'1110.8
2014-Oct-16 13:33N 36°43' W 026°33'1111.2
2014-Oct-16 12:33N 36°49' W 026°21'1211.6
2014-Oct-16 11:33N 36°55' W 026°09'1212.5
2014-Oct-16 10:33N 37°02' W 025°56'1414.0
2014-Oct-16 09:33N 37°10' W 025°41'1212.5
2014-Oct-16 08:34N 37°16' W 025°28'1211.8
2014-Oct-16 07:33N 37°22' W 025°15'1211.6
2014-Oct-16 06:33N 37°29' W 025°03'1211.7
2014-Oct-16 05:33N 37°34' W 024°49'1111.5
2014-Oct-16 04:33N 37°38' W 024°36'1111.4
2014-Oct-16 03:33N 37°43' W 024°23'1010.5
2014-Oct-16 02:33N 37°47' W 024°11'1010.3
2014-Oct-16 01:33N 37°51' W 023°59'1010.1
2014-Oct-16 00:33N 37°55' W 023°47'33 9.9
2014-Oct-15 21:11N 38°08' W 023°08'10 9.7
2014-Oct-15 20:11N 38°12' W 022°56'  
2014-Oct-11 04:25N 50°16' W 001°23'1416.2
2014-Oct-11 03:33N 50°20' W 001°01'4214.0
2014-Oct-11 00:34N 50°32' E 000°02'1111.3
2014-Oct-10 23:34N 50°35' E 000°19'1010.2
2014-Oct-10 22:34N 50°38' E 000°34'1010.4
2014-Oct-10 21:34N 50°44' E 000°48'1312.3
2014-Oct-10 20:31N 50°51' E 001°04'1414.7
2014-Oct-10 19:34N 51°01' E 001°21'1414.3
2014-Oct-10 18:33N 51°10' E 001°38'1212.4
2014-Oct-10 17:33N 51°19' E 001°51'1110.9
2014-Oct-10 16:33N 51°29' E 001°60'1010.3
2014-Oct-10 15:34N 51°36' E 002°11'10 9.6
2014-Oct-10 14:33N 51°43' E 002°22'11 9.8
2014-Oct-10 13:25N 51°51' E 002°34'3411.6
2014-Oct-10 10:32N 52°03' E 003°25'1312.9
2014-Oct-10 09:33N 52°02' E 003°46'9 9.2
2014-Oct-10 08:33N 52°00' E 004°00'5 4.5
2014-Oct-10 07:31N 51°58' E 004°07'0 0.0
2014-Oct-10 06:31N 51°58' E 004°07'0 0.0
2014-Oct-10 05:31N 51°58' E 004°07'0 0.0
2014-Oct-10 04:32N 51°58' E 004°07'0 0.0
2014-Oct-10 03:31N 51°58' E 004°07'0 0.0
2014-Oct-10 02:31N 51°58' E 004°07'0 0.0
2014-Oct-10 01:31N 51°58' E 004°07'0 0.0
2014-Oct-10 00:31N 51°58' E 004°07'0 0.0
2014-Oct-09 23:31N 51°58' E 004°07'0 0.0
2014-Oct-09 22:31N 51°58' E 004°07'0 0.0
2014-Oct-09 21:31N 51°58' E 004°07'0 0.0
2014-Oct-09 20:31N 51°58' E 004°07'0 0.0
2014-Oct-09 19:31N 51°58' E 004°07'0 0.0
2014-Oct-09 18:31N 51°58' E 004°07'0 0.0
2014-Oct-09 17:31N 51°58' E 004°07'0 0.0
2014-Oct-09 16:31N 51°58' E 004°07'0 0.0
2014-Oct-09 15:31N 51°58' E 004°07'0 0.0
2014-Oct-09 14:31N 51°58' E 004°07'0 0.0
2014-Oct-09 13:28N 51°58' E 004°07'0 0.0
2014-Oct-09 12:31N 51°58' E 004°07'0 0.0
2014-Oct-09 11:31N 51°58' E 004°07'0 0.0
2014-Oct-09 10:31N 51°58' E 004°07'0 0.0
2014-Oct-09 09:31N 51°58' E 004°07'0 0.0
2014-Oct-09 08:28N 51°58' E 004°07'0 0.0
2014-Oct-09 07:31N 51°58' E 004°07'0 0.0
2014-Oct-09 06:31N 51°58' E 004°07'0 0.0
2014-Oct-09 05:31N 51°58' E 004°07'0 0.0
2014-Oct-09 04:31N 51°58' E 004°07'0 0.0
2014-Oct-09 03:31N 51°58' E 004°07'0 0.0
2014-Oct-09 02:31N 51°58' E 004°07'0 0.0
2014-Oct-09 01:31N 51°58' E 004°07'0 0.0
2014-Oct-09 00:31N 51°58' E 004°07'0 0.0
2014-Oct-08 23:31N 51°58' E 004°07'0 0.0
2014-Oct-08 22:31N 51°58' E 004°07'0 0.0
2014-Oct-08 21:31N 51°58' E 004°07'0 0.0
2014-Oct-08 20:31N 51°58' E 004°07'0 0.0
2014-Oct-08 19:31N 51°58' E 004°07'0 0.0
2014-Oct-08 18:31N 51°58' E 004°07'0 0.0
2014-Oct-08 17:31N 51°58' E 004°07'0 0.0
2014-Oct-08 16:31N 51°58' E 004°07'0 0.0
2014-Oct-08 15:31N 51°58' E 004°07'0 0.0
2014-Oct-08 14:22N 51°58' E 004°07'0 0.0
2014-Oct-08 13:31N 51°58' E 004°07'0 0.0
2014-Oct-08 12:31N 51°58' E 004°07'0 0.0
2014-Oct-08 11:31N 51°58' E 004°07'0 0.0
2014-Oct-08 10:31N 51°58' E 004°07'0 0.0
2014-Oct-08 09:31N 51°58' E 004°07'0 0.0
2014-Oct-08 08:31N 51°58' E 004°07'0 0.0
2014-Oct-08 07:31N 51°58' E 004°07'0 0.0
2014-Oct-08 06:31N 51°58' E 004°07'0 0.0
2014-Oct-08 05:31N 51°58' E 004°07'0 0.0
2014-Oct-08 04:31N 51°58' E 004°07'0 0.0
2014-Oct-08 03:31N 51°58' E 004°07'0 0.0
2014-Oct-08 02:25N 51°58' E 004°07'0 0.0
2014-Oct-08 01:25N 51°58' E 004°07'0 0.0
2014-Oct-08 00:31N 51°58' E 004°07'0 0.0
2014-Oct-07 23:31N 51°58' E 004°07'0 0.0
2014-Oct-07 22:28N 51°58' E 004°07'0 0.0
2014-Oct-07 21:31N 51°58' E 004°07'0 0.0
2014-Oct-07 20:31N 51°58' E 004°07'0 0.0
2014-Oct-07 19:31N 51°58' E 004°07'0 0.0
2014-Oct-07 18:31N 51°58' E 004°07'0 0.0
2014-Oct-07 17:31N 51°58' E 004°07'0 0.0
2014-Oct-07 16:31N 51°58' E 004°07'0 0.0
2014-Oct-07 15:31N 51°58' E 004°07'0 0.0
2014-Oct-07 14:28N 51°58' E 004°07'0 0.0
2014-Oct-07 13:31N 51°58' E 004°07'0 0.0
2014-Oct-07 12:31N 51°58' E 004°07'0 0.0
2014-Oct-07 11:31N 51°58' E 004°07'0 0.0
2014-Oct-07 10:31N 51°58' E 004°07'0 0.0
2014-Oct-07 09:31N 51°58' E 004°07'0 0.0
2014-Oct-07 08:31N 51°58' E 004°07'0 0.0
2014-Oct-07 07:28N 51°58' E 004°07'0 0.0
2014-Oct-07 06:31N 51°58' E 004°07'0 0.0
2014-Oct-07 05:31N 51°58' E 004°07'0 0.0
2014-Oct-07 04:31N 51°58' E 004°07'0 0.0
2014-Oct-07 03:31N 51°58' E 004°07'  
Track history (hours):
 
Tides and Currents Weather Stations Pressure Air Temp Water Temp Dewpoint Dewpoint Depression Visibility Wind Speed Wind Dir Waves Ship Positions

E.r. Borneo

Last reported at 2014-Oct-17 03:18 UTC. Time now 2014-Oct-22 12:18 UTC.
Position N 35°31' W 028°51'.

Length 292 m; draft 10.5 m.

Type: Cargo ship. MMSI: 636091797.

Date/timePositionNaut miles runAvg speedWind from/ knotsBaromVisibWave heightAir tempDewpointWater temp
2014-Oct-17 03:18N 35°31' W 028°51'92 9.4
2014-Oct-16 17:32N 36°21' W 027°16'2110.2
2014-Oct-16 15:31N 36°32' W 026°54'1010.3
2014-Oct-16 14:33N 36°37' W 026°44'1110.8
2014-Oct-16 13:33N 36°43' W 026°33'1111.2
2014-Oct-16 12:33N 36°49' W 026°21'1211.6
2014-Oct-16 11:33N 36°55' W 026°09'1212.5
2014-Oct-16 10:33N 37°02' W 025°56'1414.0
2014-Oct-16 09:33N 37°10' W 025°41'1212.5
2014-Oct-16 08:34N 37°16' W 025°28'1211.8
2014-Oct-16 07:33N 37°22' W 025°15'1211.6
2014-Oct-16 06:33N 37°29' W 025°03'1211.7
2014-Oct-16 05:33N 37°34' W 024°49'1111.5
2014-Oct-16 04:33N 37°38' W 024°36'1111.4
2014-Oct-16 03:33N 37°43' W 024°23'1010.5
2014-Oct-16 02:33N 37°47' W 024°11'1010.3
2014-Oct-16 01:33N 37°51' W 023°59'1010.1
2014-Oct-16 00:33N 37°55' W 023°47'33 9.9
2014-Oct-15 21:11N 38°08' W 023°08'10 9.7
2014-Oct-15 20:11N 38°12' W 022°56'  
2014-Oct-11 04:25N 50°16' W 001°23'1416.2
2014-Oct-11 03:33N 50°20' W 001°01'4214.0
2014-Oct-11 00:34N 50°32' E 000°02'1111.3
2014-Oct-10 23:34N 50°35' E 000°19'1010.2
2014-Oct-10 22:34N 50°38' E 000°34'1010.4
2014-Oct-10 21:34N 50°44' E 000°48'1312.3
2014-Oct-10 20:31N 50°51' E 001°04'1414.7
2014-Oct-10 19:34N 51°01' E 001°21'1414.3
2014-Oct-10 18:33N 51°10' E 001°38'1212.4
2014-Oct-10 17:33N 51°19' E 001°51'1110.9
2014-Oct-10 16:33N 51°29' E 001°60'1010.3
2014-Oct-10 15:34N 51°36' E 002°11'10 9.6
2014-Oct-10 14:33N 51°43' E 002°22'11 9.8
2014-Oct-10 13:25N 51°51' E 002°34'3411.6
2014-Oct-10 10:32N 52°03' E 003°25'1312.9
2014-Oct-10 09:33N 52°02' E 003°46'9 9.2
2014-Oct-10 08:33N 52°00' E 004°00'5 4.5
2014-Oct-10 07:31N 51°58' E 004°07'0 0.0
2014-Oct-10 06:31N 51°58' E 004°07'0 0.0
2014-Oct-10 05:31N 51°58' E 004°07'0 0.0
2014-Oct-10 04:32N 51°58' E 004°07'0 0.0
2014-Oct-10 03:31N 51°58' E 004°07'0 0.0
2014-Oct-10 02:31N 51°58' E 004°07'0 0.0
2014-Oct-10 01:31N 51°58' E 004°07'0 0.0
2014-Oct-10 00:31N 51°58' E 004°07'0 0.0
2014-Oct-09 23:31N 51°58' E 004°07'0 0.0
2014-Oct-09 22:31N 51°58' E 004°07'0 0.0
2014-Oct-09 21:31N 51°58' E 004°07'0 0.0
2014-Oct-09 20:31N 51°58' E 004°07'0 0.0
2014-Oct-09 19:31N 51°58' E 004°07'0 0.0
2014-Oct-09 18:31N 51°58' E 004°07'0 0.0
2014-Oct-09 17:31N 51°58' E 004°07'0 0.0
2014-Oct-09 16:31N 51°58' E 004°07'0 0.0
2014-Oct-09 15:31N 51°58' E 004°07'0 0.0
2014-Oct-09 14:31N 51°58' E 004°07'0 0.0
2014-Oct-09 13:28N 51°58' E 004°07'0 0.0
2014-Oct-09 12:31N 51°58' E 004°07'0 0.0
2014-Oct-09 11:31N 51°58' E 004°07'0 0.0
2014-Oct-09 10:31N 51°58' E 004°07'0 0.0
2014-Oct-09 09:31N 51°58' E 004°07'0 0.0
2014-Oct-09 08:28N 51°58' E 004°07'0 0.0
2014-Oct-09 07:31N 51°58' E 004°07'0 0.0
2014-Oct-09 06:31N 51°58' E 004°07'0 0.0
2014-Oct-09 05:31N 51°58' E 004°07'0 0.0
2014-Oct-09 04:31N 51°58' E 004°07'0 0.0
2014-Oct-09 03:31N 51°58' E 004°07'0 0.0
2014-Oct-09 02:31N 51°58' E 004°07'0 0.0
2014-Oct-09 01:31N 51°58' E 004°07'0 0.0
2014-Oct-09 00:31N 51°58' E 004°07'0 0.0
2014-Oct-08 23:31N 51°58' E 004°07'0 0.0
2014-Oct-08 22:31N 51°58' E 004°07'0 0.0
2014-Oct-08 21:31N 51°58' E 004°07'0 0.0
2014-Oct-08 20:31N 51°58' E 004°07'0 0.0
2014-Oct-08 19:31N 51°58' E 004°07'0 0.0
2014-Oct-08 18:31N 51°58' E 004°07'0 0.0
2014-Oct-08 17:31N 51°58' E 004°07'0 0.0
2014-Oct-08 16:31N 51°58' E 004°07'0 0.0
2014-Oct-08 15:31N 51°58' E 004°07'0 0.0
2014-Oct-08 14:22N 51°58' E 004°07'0 0.0
2014-Oct-08 13:31N 51°58' E 004°07'0 0.0
2014-Oct-08 12:31N 51°58' E 004°07'0 0.0
2014-Oct-08 11:31N 51°58' E 004°07'0 0.0
2014-Oct-08 10:31N 51°58' E 004°07'0 0.0
2014-Oct-08 09:31N 51°58' E 004°07'0 0.0
2014-Oct-08 08:31N 51°58' E 004°07'0 0.0
2014-Oct-08 07:31N 51°58' E 004°07'0 0.0
2014-Oct-08 06:31N 51°58' E 004°07'0 0.0
2014-Oct-08 05:31N 51°58' E 004°07'0 0.0
2014-Oct-08 04:31N 51°58' E 004°07'0 0.0
2014-Oct-08 03:31N 51°58' E 004°07'0 0.0
2014-Oct-08 02:25N 51°58' E 004°07'0 0.0
2014-Oct-08 01:25N 51°58' E 004°07'0 0.0
2014-Oct-08 00:31N 51°58' E 004°07'0 0.0
2014-Oct-07 23:31N 51°58' E 004°07'0 0.0
2014-Oct-07 22:28N 51°58' E 004°07'0 0.0
2014-Oct-07 21:31N 51°58' E 004°07'0 0.0
2014-Oct-07 20:31N 51°58' E 004°07'0 0.0
2014-Oct-07 19:31N 51°58' E 004°07'0 0.0
2014-Oct-07 18:31N 51°58' E 004°07'0 0.0
2014-Oct-07 17:31N 51°58' E 004°07'0 0.0
2014-Oct-07 16:31N 51°58' E 004°07'0 0.0
2014-Oct-07 15:31N 51°58' E 004°07'0 0.0
2014-Oct-07 14:28N 51°58' E 004°07'0 0.0
2014-Oct-07 13:31N 51°58' E 004°07'0 0.0
2014-Oct-07 12:31N 51°58' E 004°07'0 0.0
2014-Oct-07 11:31N 51°58' E 004°07'0 0.0
2014-Oct-07 10:31N 51°58' E 004°07'0 0.0
2014-Oct-07 09:31N 51°58' E 004°07'0 0.0
2014-Oct-07 08:31N 51°58' E 004°07'0 0.0
2014-Oct-07 07:28N 51°58' E 004°07'0 0.0
2014-Oct-07 06:31N 51°58' E 004°07'0 0.0
2014-Oct-07 05:31N 51°58' E 004°07'0 0.0
2014-Oct-07 04:31N 51°58' E 004°07'0 0.0
2014-Oct-07 03:31N 51°58' E 004°07'  

Dump ship's entire track history